sensor_id;sensor_type;location;lat;lon;timestamp;P1;durP1;ratioP1;P2;durP2;ratioP2
34236;SDS011;20501;45.956;13.632;2022-08-21T00:01:13;1.33;;;1.10;;
34236;SDS011;20501;45.956;13.632;2022-08-21T00:03:41;1.15;;;0.90;;
34236;SDS011;20501;45.956;13.632;2022-08-21T00:06:06;1.38;;;1.20;;
34236;SDS011;20501;45.956;13.632;2022-08-21T00:08:32;1.30;;;1.20;;
34236;SDS011;20501;45.956;13.632;2022-08-21T00:10:58;9.20;;;1.33;;
34236;SDS011;20501;45.956;13.632;2022-08-21T00:13:24;1.10;;;0.90;;
34236;SDS011;20501;45.956;13.632;2022-08-21T00:15:50;2.33;;;1.10;;
34236;SDS011;20501;45.956;13.632;2022-08-21T00:18:16;3.03;;;1.23;;
34236;SDS011;20501;45.956;13.632;2022-08-21T00:23:08;1.73;;;1.08;;
34236;SDS011;20501;45.956;13.632;2022-08-21T00:25:34;1.45;;;1.10;;
34236;SDS011;20501;45.956;13.632;2022-08-21T00:28:01;1.50;;;1.08;;
34236;SDS011;20501;45.956;13.632;2022-08-21T00:30:27;2.92;;;0.98;;
34236;SDS011;20501;45.956;13.632;2022-08-21T00:32:54;1.37;;;1.20;;
34236;SDS011;20501;45.956;13.632;2022-08-21T00:35:23;2.90;;;0.88;;
34236;SDS011;20501;45.956;13.632;2022-08-21T00:37:51;3.58;;;1.15;;
34236;SDS011;20501;45.956;13.632;2022-08-21T00:40:19;2.08;;;1.33;;
34236;SDS011;20501;45.956;13.632;2022-08-21T00:42:48;0.95;;;0.80;;
34236;SDS011;20501;45.956;13.632;2022-08-21T00:45:15;1.67;;;1.20;;
34236;SDS011;20501;45.956;13.632;2022-08-21T00:47:41;2.60;;;0.90;;
34236;SDS011;20501;45.956;13.632;2022-08-21T00:50:07;1.05;;;0.95;;
34236;SDS011;20501;45.956;13.632;2022-08-21T00:52:34;3.05;;;1.10;;
34236;SDS011;20501;45.956;13.632;2022-08-21T00:55:03;1.02;;;1.00;;
34236;SDS011;20501;45.956;13.632;2022-08-21T00:57:35;3.75;;;1.20;;
34236;SDS011;20501;45.956;13.632;2022-08-21T01:00:09;1.88;;;1.08;;
34236;SDS011;20501;45.956;13.632;2022-08-21T01:02:38;1.67;;;1.00;;
34236;SDS011;20501;45.956;13.632;2022-08-21T01:05:05;2.87;;;1.07;;
34236;SDS011;20501;45.956;13.632;2022-08-21T01:07:33;0.90;;;0.88;;
34236;SDS011;20501;45.956;13.632;2022-08-21T01:09:59;1.27;;;1.10;;
34236;SDS011;20501;45.956;13.632;2022-08-21T01:12:25;1.33;;;1.10;;
34236;SDS011;20501;45.956;13.632;2022-08-21T01:14:50;2.58;;;0.95;;
34236;SDS011;20501;45.956;13.632;2022-08-21T01:17:16;1.67;;;0.87;;
34236;SDS011;20501;45.956;13.632;2022-08-21T01:19:44;1.08;;;0.80;;
34236;SDS011;20501;45.956;13.632;2022-08-21T01:22:09;1.10;;;1.00;;
34236;SDS011;20501;45.956;13.632;2022-08-21T01:24:35;0.88;;;0.88;;
34236;SDS011;20501;45.956;13.632;2022-08-21T01:27:00;2.65;;;0.90;;
34236;SDS011;20501;45.956;13.632;2022-08-21T01:29:45;0.70;;;0.70;;
34236;SDS011;20501;45.956;13.632;2022-08-21T01:32:18;1.00;;;0.90;;
34236;SDS011;20501;45.956;13.632;2022-08-21T01:34:46;3.15;;;0.90;;
34236;SDS011;20501;45.956;13.632;2022-08-21T01:37:14;1.63;;;0.85;;
34236;SDS011;20501;45.956;13.632;2022-08-21T01:39:40;3.30;;;0.85;;
34236;SDS011;20501;45.956;13.632;2022-08-21T01:42:06;1.85;;;0.80;;
34236;SDS011;20501;45.956;13.632;2022-08-21T01:44:32;1.88;;;0.88;;
34236;SDS011;20501;45.956;13.632;2022-08-21T01:46:59;1.90;;;0.90;;
34236;SDS011;20501;45.956;13.632;2022-08-21T01:49:26;0.85;;;0.77;;
34236;SDS011;20501;45.956;13.632;2022-08-21T01:51:51;2.33;;;1.02;;
34236;SDS011;20501;45.956;13.632;2022-08-21T01:54:17;3.67;;;0.90;;
34236;SDS011;20501;45.956;13.632;2022-08-21T01:56:45;2.17;;;1.17;;
34236;SDS011;20501;45.956;13.632;2022-08-21T01:59:13;2.03;;;1.00;;
34236;SDS011;20501;45.956;13.632;2022-08-21T02:01:40;1.45;;;1.00;;
34236;SDS011;20501;45.956;13.632;2022-08-21T02:04:06;4.60;;;1.63;;
34236;SDS011;20501;45.956;13.632;2022-08-21T02:08:58;1.48;;;0.93;;
34236;SDS011;20501;45.956;13.632;2022-08-21T02:11:23;0.98;;;0.85;;
34236;SDS011;20501;45.956;13.632;2022-08-21T02:13:49;1.08;;;1.05;;
34236;SDS011;20501;45.956;13.632;2022-08-21T02:16:15;2.78;;;1.10;;
34236;SDS011;20501;45.956;13.632;2022-08-21T02:18:40;1.10;;;1.00;;
34236;SDS011;20501;45.956;13.632;2022-08-21T02:21:06;1.25;;;0.80;;
34236;SDS011;20501;45.956;13.632;2022-08-21T02:23:32;1.88;;;0.90;;
34236;SDS011;20501;45.956;13.632;2022-08-21T02:25:58;3.20;;;1.30;;
34236;SDS011;20501;45.956;13.632;2022-08-21T02:28:25;2.20;;;0.93;;
34236;SDS011;20501;45.956;13.632;2022-08-21T02:30:51;1.00;;;1.00;;
34236;SDS011;20501;45.956;13.632;2022-08-21T02:33:17;1.05;;;0.90;;
34236;SDS011;20501;45.956;13.632;2022-08-21T02:35:44;1.77;;;1.20;;
34236;SDS011;20501;45.956;13.632;2022-08-21T02:38:12;1.85;;;0.90;;
34236;SDS011;20501;45.956;13.632;2022-08-21T02:40:40;1.02;;;0.80;;
34236;SDS011;20501;45.956;13.632;2022-08-21T02:43:07;1.20;;;0.90;;
34236;SDS011;20501;45.956;13.632;2022-08-21T02:45:33;0.90;;;0.85;;
34236;SDS011;20501;45.956;13.632;2022-08-21T02:48:01;1.10;;;0.80;;
34236;SDS011;20501;45.956;13.632;2022-08-21T02:50:30;4.35;;;1.20;;
34236;SDS011;20501;45.956;13.632;2022-08-21T02:52:58;3.47;;;0.95;;
34236;SDS011;20501;45.956;13.632;2022-08-21T02:55:26;1.05;;;0.80;;
34236;SDS011;20501;45.956;13.632;2022-08-21T02:57:54;0.98;;;0.90;;
34236;SDS011;20501;45.956;13.632;2022-08-21T03:00:22;1.30;;;1.00;;
34236;SDS011;20501;45.956;13.632;2022-08-21T03:02:49;1.00;;;0.80;;
34236;SDS011;20501;45.956;13.632;2022-08-21T03:05:15;3.83;;;1.10;;
34236;SDS011;20501;45.956;13.632;2022-08-21T03:07:41;1.95;;;1.15;;
34236;SDS011;20501;45.956;13.632;2022-08-21T03:10:08;4.15;;;1.02;;
34236;SDS011;20501;45.956;13.632;2022-08-21T03:12:34;1.50;;;0.80;;
34236;SDS011;20501;45.956;13.632;2022-08-21T03:15:01;2.70;;;0.95;;
34236;SDS011;20501;45.956;13.632;2022-08-21T03:17:28;4.38;;;0.95;;
34236;SDS011;20501;45.956;13.632;2022-08-21T03:19:54;1.02;;;0.90;;
34236;SDS011;20501;45.956;13.632;2022-08-21T03:22:19;1.27;;;0.85;;
34236;SDS011;20501;45.956;13.632;2022-08-21T03:24:45;2.83;;;1.17;;
34236;SDS011;20501;45.956;13.632;2022-08-21T03:27:10;4.07;;;0.95;;
34236;SDS011;20501;45.956;13.632;2022-08-21T03:29:38;1.85;;;0.80;;
34236;SDS011;20501;45.956;13.632;2022-08-21T03:32:03;1.85;;;0.93;;
34236;SDS011;20501;45.956;13.632;2022-08-21T03:34:29;4.13;;;1.08;;
34236;SDS011;20501;45.956;13.632;2022-08-21T03:36:54;3.72;;;1.00;;
34236;SDS011;20501;45.956;13.632;2022-08-21T03:39:20;2.92;;;1.08;;
34236;SDS011;20501;45.956;13.632;2022-08-21T03:41:45;1.15;;;0.80;;
34236;SDS011;20501;45.956;13.632;2022-08-21T03:44:12;1.77;;;0.93;;
34236;SDS011;20501;45.956;13.632;2022-08-21T03:46:37;2.22;;;1.77;;
34236;SDS011;20501;45.956;13.632;2022-08-21T03:49:03;1.80;;;1.15;;
34236;SDS011;20501;45.956;13.632;2022-08-21T03:51:29;0.70;;;0.70;;
34236;SDS011;20501;45.956;13.632;2022-08-21T03:53:57;1.30;;;0.80;;
34236;SDS011;20501;45.956;13.632;2022-08-21T03:56:22;2.78;;;1.08;;
34236;SDS011;20501;45.956;13.632;2022-08-21T03:58:48;1.20;;;1.00;;
34236;SDS011;20501;45.956;13.632;2022-08-21T04:01:14;1.52;;;1.00;;
34236;SDS011;20501;45.956;13.632;2022-08-21T04:03:39;3.53;;;0.95;;
34236;SDS011;20501;45.956;13.632;2022-08-21T04:06:05;5.25;;;1.08;;
34236;SDS011;20501;45.956;13.632;2022-08-21T04:08:31;1.88;;;0.85;;
34236;SDS011;20501;45.956;13.632;2022-08-21T04:10:56;2.33;;;0.90;;
34236;SDS011;20501;45.956;13.632;2022-08-21T04:13:23;1.27;;;1.17;;
34236;SDS011;20501;45.956;13.632;2022-08-21T04:15:49;2.75;;;0.93;;
34236;SDS011;20501;45.956;13.632;2022-08-21T04:18:14;2.72;;;0.98;;
34236;SDS011;20501;45.956;13.632;2022-08-21T04:20:40;2.72;;;1.10;;
34236;SDS011;20501;45.956;13.632;2022-08-21T04:23:08;1.42;;;1.05;;
34236;SDS011;20501;45.956;13.632;2022-08-21T04:25:34;3.88;;;1.13;;
34236;SDS011;20501;45.956;13.632;2022-08-21T04:28:00;1.00;;;0.90;;
34236;SDS011;20501;45.956;13.632;2022-08-21T04:30:26;1.08;;;0.80;;
34236;SDS011;20501;45.956;13.632;2022-08-21T04:32:52;4.30;;;1.10;;
34236;SDS011;20501;45.956;13.632;2022-08-21T04:35:19;1.27;;;1.05;;
34236;SDS011;20501;45.956;13.632;2022-08-21T04:37:46;3.50;;;1.00;;
34236;SDS011;20501;45.956;13.632;2022-08-21T04:40:12;1.75;;;1.30;;
34236;SDS011;20501;45.956;13.632;2022-08-21T04:42:43;1.70;;;1.10;;
34236;SDS011;20501;45.956;13.632;2022-08-21T04:45:15;1.60;;;0.98;;
34236;SDS011;20501;45.956;13.632;2022-08-21T04:47:44;1.40;;;0.88;;
34236;SDS011;20501;45.956;13.632;2022-08-21T04:50:10;1.17;;;1.05;;
34236;SDS011;20501;45.956;13.632;2022-08-21T04:52:35;1.63;;;0.90;;
34236;SDS011;20501;45.956;13.632;2022-08-21T04:55:02;1.45;;;0.90;;
34236;SDS011;20501;45.956;13.632;2022-08-21T04:57:27;6.03;;;0.85;;
34236;SDS011;20501;45.956;13.632;2022-08-21T04:59:53;1.30;;;1.02;;
34236;SDS011;20501;45.956;13.632;2022-08-21T05:02:18;1.92;;;0.93;;
34236;SDS011;20501;45.956;13.632;2022-08-21T05:04:47;1.45;;;1.02;;
34236;SDS011;20501;45.956;13.632;2022-08-21T05:07:16;1.88;;;0.85;;
34236;SDS011;20501;45.956;13.632;2022-08-21T05:09:47;1.38;;;0.82;;
34236;SDS011;20501;45.956;13.632;2022-08-21T05:12:12;1.20;;;1.10;;
34236;SDS011;20501;45.956;13.632;2022-08-21T05:14:38;1.38;;;1.00;;
34236;SDS011;20501;45.956;13.632;2022-08-21T05:17:03;8.93;;;1.00;;
34236;SDS011;20501;45.956;13.632;2022-08-21T05:19:29;2.83;;;0.90;;
34236;SDS011;20501;45.956;13.632;2022-08-21T05:21:55;1.45;;;0.80;;
34236;SDS011;20501;45.956;13.632;2022-08-21T05:24:20;2.03;;;0.73;;
34236;SDS011;20501;45.956;13.632;2022-08-21T05:26:46;1.55;;;0.98;;
34236;SDS011;20501;45.956;13.632;2022-08-21T05:29:12;1.20;;;0.80;;
34236;SDS011;20501;45.956;13.632;2022-08-21T05:31:39;3.05;;;1.05;;
34236;SDS011;20501;45.956;13.632;2022-08-21T05:34:04;2.85;;;0.85;;
34236;SDS011;20501;45.956;13.632;2022-08-21T05:36:30;1.05;;;1.00;;
34236;SDS011;20501;45.956;13.632;2022-08-21T05:38:55;1.48;;;0.93;;
34236;SDS011;20501;45.956;13.632;2022-08-21T05:41:21;1.02;;;0.90;;
34236;SDS011;20501;45.956;13.632;2022-08-21T05:43:46;1.00;;;0.90;;
34236;SDS011;20501;45.956;13.632;2022-08-21T05:46:14;1.15;;;0.70;;
34236;SDS011;20501;45.956;13.632;2022-08-21T05:48:40;1.98;;;1.02;;
34236;SDS011;20501;45.956;13.632;2022-08-21T05:51:07;3.38;;;1.45;;
34236;SDS011;20501;45.956;13.632;2022-08-21T05:53:34;2.95;;;0.90;;
34236;SDS011;20501;45.956;13.632;2022-08-21T05:56:01;1.88;;;1.02;;
34236;SDS011;20501;45.956;13.632;2022-08-21T05:58:29;16.48;;;2.78;;
34236;SDS011;20501;45.956;13.632;2022-08-21T06:00:55;9.38;;;1.63;;
34236;SDS011;20501;45.956;13.632;2022-08-21T06:03:25;6.30;;;2.15;;
34236;SDS011;20501;45.956;13.632;2022-08-21T06:05:52;5.03;;;1.27;;
34236;SDS011;20501;45.956;13.632;2022-08-21T06:08:19;2.87;;;1.37;;
34236;SDS011;20501;45.956;13.632;2022-08-21T06:10:46;9.27;;;2.58;;
34236;SDS011;20501;45.956;13.632;2022-08-21T06:13:12;6.60;;;1.10;;
34236;SDS011;20501;45.956;13.632;2022-08-21T06:15:38;2.47;;;0.98;;
34236;SDS011;20501;45.956;13.632;2022-08-21T06:18:07;2.13;;;1.00;;
34236;SDS011;20501;45.956;13.632;2022-08-21T06:20:32;1.80;;;1.08;;
34236;SDS011;20501;45.956;13.632;2022-08-21T06:22:59;1.00;;;0.90;;
34236;SDS011;20501;45.956;13.632;2022-08-21T06:25:25;2.13;;;1.10;;
34236;SDS011;20501;45.956;13.632;2022-08-21T06:27:51;1.40;;;0.95;;
34236;SDS011;20501;45.956;13.632;2022-08-21T06:30:17;2.13;;;1.33;;
34236;SDS011;20501;45.956;13.632;2022-08-21T06:32:42;2.33;;;1.02;;
34236;SDS011;20501;45.956;13.632;2022-08-21T06:35:08;2.95;;;1.00;;
34236;SDS011;20501;45.956;13.632;2022-08-21T06:37:34;2.20;;;1.10;;
34236;SDS011;20501;45.956;13.632;2022-08-21T06:40:00;1.48;;;1.05;;
34236;SDS011;20501;45.956;13.632;2022-08-21T06:42:26;1.55;;;1.10;;
34236;SDS011;20501;45.956;13.632;2022-08-21T06:44:53;2.28;;;1.17;;
34236;SDS011;20501;45.956;13.632;2022-08-21T06:47:18;1.58;;;1.30;;
34236;SDS011;20501;45.956;13.632;2022-08-21T06:49:44;5.05;;;0.98;;
34236;SDS011;20501;45.956;13.632;2022-08-21T06:52:10;2.58;;;0.80;;
34236;SDS011;20501;45.956;13.632;2022-08-21T06:54:37;1.55;;;1.02;;
34236;SDS011;20501;45.956;13.632;2022-08-21T06:57:04;0.77;;;0.77;;
34236;SDS011;20501;45.956;13.632;2022-08-21T06:59:30;1.75;;;1.10;;
34236;SDS011;20501;45.956;13.632;2022-08-21T07:01:56;3.97;;;0.90;;
34236;SDS011;20501;45.956;13.632;2022-08-21T07:04:22;4.07;;;1.10;;
34236;SDS011;20501;45.956;13.632;2022-08-21T07:06:48;2.88;;;1.10;;
34236;SDS011;20501;45.956;13.632;2022-08-21T07:09:13;1.80;;;0.82;;
34236;SDS011;20501;45.956;13.632;2022-08-21T07:11:39;1.58;;;1.23;;
34236;SDS011;20501;45.956;13.632;2022-08-21T07:14:06;5.03;;;1.30;;
34236;SDS011;20501;45.956;13.632;2022-08-21T07:16:31;1.10;;;1.00;;
34236;SDS011;20501;45.956;13.632;2022-08-21T07:18:57;1.00;;;0.93;;
34236;SDS011;20501;45.956;13.632;2022-08-21T07:21:22;1.92;;;1.00;;
34236;SDS011;20501;45.956;13.632;2022-08-21T07:23:49;3.55;;;0.90;;
34236;SDS011;20501;45.956;13.632;2022-08-21T07:26:17;2.85;;;1.10;;
34236;SDS011;20501;45.956;13.632;2022-08-21T07:28:44;2.78;;;1.05;;
34236;SDS011;20501;45.956;13.632;2022-08-21T07:31:10;1.15;;;1.05;;
34236;SDS011;20501;45.956;13.632;2022-08-21T07:33:39;1.45;;;0.98;;
34236;SDS011;20501;45.956;13.632;2022-08-21T07:36:06;1.60;;;1.50;;
34236;SDS011;20501;45.956;13.632;2022-08-21T07:38:32;1.83;;;1.00;;
34236;SDS011;20501;45.956;13.632;2022-08-21T07:40:58;4.40;;;1.05;;
34236;SDS011;20501;45.956;13.632;2022-08-21T07:43:26;1.50;;;1.10;;
34236;SDS011;20501;45.956;13.632;2022-08-21T07:45:52;1.17;;;1.05;;
34236;SDS011;20501;45.956;13.632;2022-08-21T07:50:44;3.05;;;1.17;;
34236;SDS011;20501;45.956;13.632;2022-08-21T07:53:10;0.82;;;0.75;;
34236;SDS011;20501;45.956;13.632;2022-08-21T07:55:35;1.30;;;1.02;;
34236;SDS011;20501;45.956;13.632;2022-08-21T07:58:01;1.75;;;1.50;;
34236;SDS011;20501;45.956;13.632;2022-08-21T08:00:27;2.33;;;1.00;;
34236;SDS011;20501;45.956;13.632;2022-08-21T08:02:54;1.60;;;1.20;;
34236;SDS011;20501;45.956;13.632;2022-08-21T08:05:21;2.83;;;0.90;;
34236;SDS011;20501;45.956;13.632;2022-08-21T08:07:50;4.07;;;0.80;;
34236;SDS011;20501;45.956;13.632;2022-08-21T08:10:15;1.52;;;1.10;;
34236;SDS011;20501;45.956;13.632;2022-08-21T08:12:42;1.90;;;0.83;;
34236;SDS011;20501;45.956;13.632;2022-08-21T08:15:08;2.27;;;1.47;;
34236;SDS011;20501;45.956;13.632;2022-08-21T08:17:44;1.07;;;0.90;;
34236;SDS011;20501;45.956;13.632;2022-08-21T08:20:10;1.40;;;1.13;;
34236;SDS011;20501;45.956;13.632;2022-08-21T08:22:38;1.65;;;1.23;;
34236;SDS011;20501;45.956;13.632;2022-08-21T08:25:04;2.38;;;1.10;;
34236;SDS011;20501;45.956;13.632;2022-08-21T08:27:31;1.15;;;1.05;;
34236;SDS011;20501;45.956;13.632;2022-08-21T08:29:57;1.88;;;1.20;;
34236;SDS011;20501;45.956;13.632;2022-08-21T08:32:23;1.07;;;1.00;;
34236;SDS011;20501;45.956;13.632;2022-08-21T08:34:49;3.95;;;1.30;;
34236;SDS011;20501;45.956;13.632;2022-08-21T08:37:16;4.03;;;1.23;;
34236;SDS011;20501;45.956;13.632;2022-08-21T08:39:44;0.75;;;0.75;;
34236;SDS011;20501;45.956;13.632;2022-08-21T08:44:43;1.52;;;1.20;;
34236;SDS011;20501;45.956;13.632;2022-08-21T08:47:14;5.05;;;1.77;;
34236;SDS011;20501;45.956;13.632;2022-08-21T08:49:46;2.20;;;1.30;;
34236;SDS011;20501;45.956;13.632;2022-08-21T08:52:20;1.60;;;1.50;;
34236;SDS011;20501;45.956;13.632;2022-08-21T08:54:58;4.53;;;1.10;;
34236;SDS011;20501;45.956;13.632;2022-08-21T08:57:46;1.25;;;1.15;;
34236;SDS011;20501;45.956;13.632;2022-08-21T09:00:14;4.18;;;1.48;;
34236;SDS011;20501;45.956;13.632;2022-08-21T09:02:42;2.28;;;1.20;;
34236;SDS011;20501;45.956;13.632;2022-08-21T09:05:20;1.92;;;1.20;;
34236;SDS011;20501;45.956;13.632;2022-08-21T09:07:54;1.70;;;1.10;;
34236;SDS011;20501;45.956;13.632;2022-08-21T09:13:18;3.33;;;1.00;;
34236;SDS011;20501;45.956;13.632;2022-08-21T09:16:40;1.02;;;0.88;;
34236;SDS011;20501;45.956;13.632;2022-08-21T09:21:58;2.50;;;1.10;;
34236;SDS011;20501;45.956;13.632;2022-08-21T09:24:37;1.85;;;1.10;;
34236;SDS011;20501;45.956;13.632;2022-08-21T09:27:13;2.25;;;1.08;;
34236;SDS011;20501;45.956;13.632;2022-08-21T09:29:45;2.70;;;1.05;;
34236;SDS011;20501;45.956;13.632;2022-08-21T09:32:19;1.30;;;1.15;;
34236;SDS011;20501;45.956;13.632;2022-08-21T09:37:22;3.88;;;1.27;;
34236;SDS011;20501;45.956;13.632;2022-08-21T09:39:47;1.00;;;0.90;;
34236;SDS011;20501;45.956;13.632;2022-08-21T09:42:20;3.38;;;1.20;;
34236;SDS011;20501;45.956;13.632;2022-08-21T09:44:48;1.80;;;1.30;;
34236;SDS011;20501;45.956;13.632;2022-08-21T09:47:14;2.17;;;1.17;;
34236;SDS011;20501;45.956;13.632;2022-08-21T09:49:43;2.10;;;1.30;;
34236;SDS011;20501;45.956;13.632;2022-08-21T09:52:19;2.70;;;1.53;;
34236;SDS011;20501;45.956;13.632;2022-08-21T09:54:48;1.42;;;1.10;;
34236;SDS011;20501;45.956;13.632;2022-08-21T09:57:24;1.13;;;0.95;;
34236;SDS011;20501;45.956;13.632;2022-08-21T10:00:28;3.13;;;1.10;;
34236;SDS011;20501;45.956;13.632;2022-08-21T10:03:16;2.60;;;1.10;;
34236;SDS011;20501;45.956;13.632;2022-08-21T10:05:55;5.05;;;1.20;;
34236;SDS011;20501;45.956;13.632;2022-08-21T10:08:22;2.10;;;1.30;;
34236;SDS011;20501;45.956;13.632;2022-08-21T10:11:08;1.40;;;1.10;;
34236;SDS011;20501;45.956;13.632;2022-08-21T10:16:32;3.08;;;1.00;;
34236;SDS011;20501;45.956;13.632;2022-08-21T10:29:59;2.88;;;0.80;;
34236;SDS011;20501;45.956;13.632;2022-08-21T10:35:29;1.50;;;0.90;;
34236;SDS011;20501;45.956;13.632;2022-08-21T10:44:15;2.63;;;0.90;;
34236;SDS011;20501;45.956;13.632;2022-08-21T10:47:04;2.00;;;0.90;;
34236;SDS011;20501;45.956;13.632;2022-08-21T10:49:54;3.00;;;0.75;;
34236;SDS011;20501;45.956;13.632;2022-08-21T10:52:36;1.65;;;0.60;;
34236;SDS011;20501;45.956;13.632;2022-08-21T10:55:26;3.03;;;0.95;;
34236;SDS011;20501;45.956;13.632;2022-08-21T10:58:04;1.70;;;0.80;;
34236;SDS011;20501;45.956;13.632;2022-08-21T11:00:45;1.00;;;0.90;;
34236;SDS011;20501;45.956;13.632;2022-08-21T11:03:14;0.90;;;0.90;;
34236;SDS011;20501;45.956;13.632;2022-08-21T11:06:18;1.35;;;1.25;;
34236;SDS011;20501;45.956;13.632;2022-08-21T11:08:50;2.85;;;1.17;;
34236;SDS011;20501;45.956;13.632;2022-08-21T11:11:25;3.00;;;1.10;;
34236;SDS011;20501;45.956;13.632;2022-08-21T11:16:46;2.92;;;2.63;;
34236;SDS011;20501;45.956;13.632;2022-08-21T11:22:15;6.10;;;5.35;;
34236;SDS011;20501;45.956;13.632;2022-08-21T11:25:00;1.65;;;1.38;;
34236;SDS011;20501;45.956;13.632;2022-08-21T11:30:32;1.67;;;1.17;;
34236;SDS011;20501;45.956;13.632;2022-08-21T11:35:57;1.45;;;0.95;;
34236;SDS011;20501;45.956;13.632;2022-08-21T11:38:37;1.25;;;0.70;;
34236;SDS011;20501;45.956;13.632;2022-08-21T11:44:10;1.30;;;0.85;;
34236;SDS011;20501;45.956;13.632;2022-08-21T11:47:00;1.05;;;0.95;;
34236;SDS011;20501;45.956;13.632;2022-08-21T11:49:39;1.50;;;0.98;;
34236;SDS011;20501;45.956;13.632;2022-08-21T12:00:33;1.33;;;0.90;;
34236;SDS011;20501;45.956;13.632;2022-08-21T12:03:35;5.00;;;1.30;;
34236;SDS011;20501;45.956;13.632;2022-08-21T12:06:11;4.07;;;1.00;;
34236;SDS011;20501;45.956;13.632;2022-08-21T12:11:08;2.58;;;1.10;;
34236;SDS011;20501;45.956;13.632;2022-08-21T12:13:36;2.13;;;0.95;;
34236;SDS011;20501;45.956;13.632;2022-08-21T12:16:07;3.63;;;1.23;;
34236;SDS011;20501;45.956;13.632;2022-08-21T12:18:34;3.63;;;1.17;;
34236;SDS011;20501;45.956;13.632;2022-08-21T12:26:34;1.48;;;1.13;;
34236;SDS011;20501;45.956;13.632;2022-08-21T12:29:55;3.17;;;1.65;;
34236;SDS011;20501;45.956;13.632;2022-08-21T12:39:52;1.10;;;1.00;;
34236;SDS011;20501;45.956;13.632;2022-08-21T12:42:23;1.67;;;1.00;;
34236;SDS011;20501;45.956;13.632;2022-08-21T12:45:29;2.85;;;1.20;;
34236;SDS011;20501;45.956;13.632;2022-08-21T12:47:59;1.20;;;1.10;;
34236;SDS011;20501;45.956;13.632;2022-08-21T12:50:41;1.88;;;1.20;;
34236;SDS011;20501;45.956;13.632;2022-08-21T12:53:12;1.77;;;1.40;;
34236;SDS011;20501;45.956;13.632;2022-08-21T12:55:48;2.58;;;1.50;;
34236;SDS011;20501;45.956;13.632;2022-08-21T12:58:21;4.40;;;1.33;;
34236;SDS011;20501;45.956;13.632;2022-08-21T13:01:05;1.67;;;1.15;;
34236;SDS011;20501;45.956;13.632;2022-08-21T13:03:35;1.10;;;1.00;;
34236;SDS011;20501;45.956;13.632;2022-08-21T13:06:05;2.83;;;1.30;;
34236;SDS011;20501;45.956;13.632;2022-08-21T13:08:32;2.90;;;1.30;;
34236;SDS011;20501;45.956;13.632;2022-08-21T13:11:03;1.60;;;1.13;;
34236;SDS011;20501;45.956;13.632;2022-08-21T13:13:30;1.67;;;1.40;;
34236;SDS011;20501;45.956;13.632;2022-08-21T13:15:59;2.00;;;1.43;;
34236;SDS011;20501;45.956;13.632;2022-08-21T13:18:32;1.75;;;1.30;;
34236;SDS011;20501;45.956;13.632;2022-08-21T13:21:16;5.45;;;1.77;;
34236;SDS011;20501;45.956;13.632;2022-08-21T13:23:41;2.93;;;1.13;;
34236;SDS011;20501;45.956;13.632;2022-08-21T13:26:14;4.17;;;1.57;;
34236;SDS011;20501;45.956;13.632;2022-08-21T13:28:46;2.20;;;1.38;;
34236;SDS011;20501;45.956;13.632;2022-08-21T13:33:41;2.67;;;1.25;;
34236;SDS011;20501;45.956;13.632;2022-08-21T13:38:35;2.38;;;1.33;;
34236;SDS011;20501;45.956;13.632;2022-08-21T13:41:36;5.72;;;1.48;;
34236;SDS011;20501;45.956;13.632;2022-08-21T13:43:57;3.28;;;1.35;;
34236;SDS011;20501;45.956;13.632;2022-08-21T13:46:25;3.33;;;1.40;;
34236;SDS011;20501;45.956;13.632;2022-08-21T13:48:53;3.63;;;1.27;;
34236;SDS011;20501;45.956;13.632;2022-08-21T13:51:20;2.10;;;1.20;;
34236;SDS011;20501;45.956;13.632;2022-08-21T13:53:48;2.53;;;1.50;;
34236;SDS011;20501;45.956;13.632;2022-08-21T13:56:24;2.60;;;1.50;;
34236;SDS011;20501;45.956;13.632;2022-08-21T13:58:50;1.67;;;1.42;;
34236;SDS011;20501;45.956;13.632;2022-08-21T14:03:49;2.97;;;1.55;;
34236;SDS011;20501;45.956;13.632;2022-08-21T14:06:18;3.38;;;1.30;;
34236;SDS011;20501;45.956;13.632;2022-08-21T14:08:49;2.00;;;1.30;;
34236;SDS011;20501;45.956;13.632;2022-08-21T14:11:18;3.50;;;1.45;;
34236;SDS011;20501;45.956;13.632;2022-08-21T14:13:45;2.30;;;1.30;;
34236;SDS011;20501;45.956;13.632;2022-08-21T14:16:17;1.52;;;1.25;;
34236;SDS011;20501;45.956;13.632;2022-08-21T14:18:44;6.60;;;1.92;;
34236;SDS011;20501;45.956;13.632;2022-08-21T14:21:11;8.40;;;1.80;;
34236;SDS011;20501;45.956;13.632;2022-08-21T14:23:38;2.58;;;1.58;;
34236;SDS011;20501;45.956;13.632;2022-08-21T14:26:04;4.90;;;1.73;;
34236;SDS011;20501;45.956;13.632;2022-08-21T14:28:32;2.92;;;1.95;;
34236;SDS011;20501;45.956;13.632;2022-08-21T14:31:16;8.07;;;1.80;;
34236;SDS011;20501;45.956;13.632;2022-08-21T14:33:43;4.30;;;1.70;;
34236;SDS011;20501;45.956;13.632;2022-08-21T14:36:09;2.73;;;1.10;;
34236;SDS011;20501;45.956;13.632;2022-08-21T14:38:36;2.08;;;1.30;;
34236;SDS011;20501;45.956;13.632;2022-08-21T14:41:14;2.80;;;1.35;;
34236;SDS011;20501;45.956;13.632;2022-08-21T14:43:42;2.45;;;1.27;;
34236;SDS011;20501;45.956;13.632;2022-08-21T14:46:09;3.90;;;1.20;;
34236;SDS011;20501;45.956;13.632;2022-08-21T14:48:36;3.28;;;1.13;;
34236;SDS011;20501;45.956;13.632;2022-08-21T14:51:02;2.75;;;1.33;;
34236;SDS011;20501;45.956;13.632;2022-08-21T14:53:27;1.48;;;1.10;;
34236;SDS011;20501;45.956;13.632;2022-08-21T14:55:53;2.53;;;1.48;;
34236;SDS011;20501;45.956;13.632;2022-08-21T14:58:31;5.22;;;1.20;;
34236;SDS011;20501;45.956;13.632;2022-08-21T15:01:01;2.30;;;1.65;;
34236;SDS011;20501;45.956;13.632;2022-08-21T15:03:29;4.15;;;1.17;;
34236;SDS011;20501;45.956;13.632;2022-08-21T15:05:55;2.97;;;1.45;;
34236;SDS011;20501;45.956;13.632;2022-08-21T15:08:20;4.47;;;1.50;;
34236;SDS011;20501;45.956;13.632;2022-08-21T15:10:46;1.75;;;1.52;;
34236;SDS011;20501;45.956;13.632;2022-08-21T15:13:11;2.78;;;1.20;;
34236;SDS011;20501;45.956;13.632;2022-08-21T15:15:39;2.40;;;1.30;;
34236;SDS011;20501;45.956;13.632;2022-08-21T15:18:06;6.80;;;2.00;;
34236;SDS011;20501;45.956;13.632;2022-08-21T15:20:33;2.40;;;1.30;;
34236;SDS011;20501;45.956;13.632;2022-08-21T15:22:58;3.33;;;1.20;;
34236;SDS011;20501;45.956;13.632;2022-08-21T15:25:24;1.50;;;0.90;;
34236;SDS011;20501;45.956;13.632;2022-08-21T15:27:49;6.72;;;1.23;;
34236;SDS011;20501;45.956;13.632;2022-08-21T15:30:15;5.50;;;1.48;;
34236;SDS011;20501;45.956;13.632;2022-08-21T15:32:40;3.13;;;1.35;;
34236;SDS011;20501;45.956;13.632;2022-08-21T15:35:07;1.10;;;1.00;;
34236;SDS011;20501;45.956;13.632;2022-08-21T15:37:32;4.47;;;1.83;;
34236;SDS011;20501;45.956;13.632;2022-08-21T15:39:58;4.93;;;1.40;;
34236;SDS011;20501;45.956;13.632;2022-08-21T15:42:24;4.95;;;1.38;;
34236;SDS011;20501;45.956;13.632;2022-08-21T15:44:51;4.88;;;1.63;;
34236;SDS011;20501;45.956;13.632;2022-08-21T15:47:19;8.65;;;2.20;;
34236;SDS011;20501;45.956;13.632;2022-08-21T15:49:49;7.45;;;1.45;;
34236;SDS011;20501;45.956;13.632;2022-08-21T15:52:16;18.85;;;3.30;;
34236;SDS011;20501;45.956;13.632;2022-08-21T15:54:43;15.75;;;4.00;;
34236;SDS011;20501;45.956;13.632;2022-08-21T15:57:10;14.07;;;3.35;;
34236;SDS011;20501;45.956;13.632;2022-08-21T15:59:42;12.45;;;3.25;;
34236;SDS011;20501;45.956;13.632;2022-08-21T16:02:12;12.52;;;3.40;;
34236;SDS011;20501;45.956;13.632;2022-08-21T16:04:40;9.40;;;3.17;;
34236;SDS011;20501;45.956;13.632;2022-08-21T16:07:06;14.10;;;2.90;;
34236;SDS011;20501;45.956;13.632;2022-08-21T16:09:31;7.30;;;2.38;;
34236;SDS011;20501;45.956;13.632;2022-08-21T16:11:58;6.25;;;1.85;;